sensor_id;sensor_type;location;lat;lon;timestamp;pressure;altitude;pressure_sealevel;temperature;humidity
84443;BME280;74681;0.000;0.000;2024-02-16T00:01:40;99626.75;;;22.96;58.32
84443;BME280;74681;0.000;0.000;2024-02-16T00:04:05;99627.84;;;22.95;58.48
84443;BME280;74681;0.000;0.000;2024-02-16T00:06:30;99625.41;;;22.93;58.48
84443;BME280;74681;0.000;0.000;2024-02-16T00:08:56;99628.13;;;22.93;58.09
84443;BME280;74681;0.000;0.000;2024-02-16T00:11:21;99628.13;;;22.93;58.38
84443;BME280;74681;0.000;0.000;2024-02-16T00:13:48;99624.88;;;22.91;58.12
84443;BME280;74681;0.000;0.000;2024-02-16T00:16:13;99626.78;;;22.91;58.30
84443;BME280;74681;0.000;0.000;2024-02-16T00:18:39;99628.69;;;22.90;58.03
84443;BME280;74681;0.000;0.000;2024-02-16T00:21:04;99625.13;;;22.90;58.16
84443;BME280;74681;0.000;0.000;2024-02-16T00:23:30;99615.31;;;22.89;58.05
84443;BME280;74681;0.000;0.000;2024-02-16T00:25:55;99625.44;;;22.88;58.07
84443;BME280;74681;0.000;0.000;2024-02-16T00:28:21;99620.78;;;22.89;57.95
84443;BME280;74681;0.000;0.000;2024-02-16T00:30:46;99621.03;;;22.87;58.07
84443;BME280;74681;0.000;0.000;2024-02-16T00:33:12;99621.03;;;22.87;57.93
84443;BME280;74681;0.000;0.000;2024-02-16T00:35:37;99616.69;;;22.86;58.20
84443;BME280;74681;0.000;0.000;2024-02-16T00:38:02;99615.88;;;22.86;57.88
84443;BME280;74681;0.000;0.000;2024-02-16T00:40:28;99616.13;;;22.84;58.12
84443;BME280;74681;0.000;0.000;2024-02-16T00:42:53;99609.03;;;22.83;57.91
84443;BME280;74681;0.000;0.000;2024-02-16T00:45:18;99608.22;;;22.83;57.86
84443;BME280;74681;0.000;0.000;2024-02-16T00:47:44;99601.91;;;22.82;58.03
84443;BME280;74681;0.000;0.000;2024-02-16T00:50:10;99607.69;;;22.81;57.83
84443;BME280;74681;0.000;0.000;2024-02-16T00:52:36;99604.13;;;22.80;57.90
84443;BME280;74681;0.000;0.000;2024-02-16T00:55:02;99601.66;;;22.79;57.85
84443;BME280;74681;0.000;0.000;2024-02-16T00:57:29;99603.56;;;22.78;58.00
84443;BME280;74681;0.000;0.000;2024-02-16T00:59:54;99601.66;;;22.79;57.73
84443;BME280;74681;0.000;0.000;2024-02-16T01:02:19;99610.16;;;22.77;57.78
84443;BME280;74681;0.000;0.000;2024-02-16T01:04:45;99603.84;;;22.77;57.73
84443;BME280;74681;0.000;0.000;2024-02-16T01:07:12;99608.50;;;22.76;57.93
84443;BME280;74681;0.000;0.000;2024-02-16T01:09:37;99609.63;;;22.75;57.78
84443;BME280;74681;0.000;0.000;2024-02-16T01:12:02;99607.97;;;22.74;57.76
84443;BME280;74681;0.000;0.000;2024-02-16T01:14:28;99607.97;;;22.74;57.89
84443;BME280;74681;0.000;0.000;2024-02-16T01:16:53;99603.06;;;22.71;57.77
84443;BME280;74681;0.000;0.000;2024-02-16T01:19:18;99598.41;;;22.72;57.72
84443;BME280;74681;0.000;0.000;2024-02-16T01:21:43;99603.88;;;22.72;57.64
84443;BME280;74681;0.000;0.000;2024-02-16T01:24:12;99597.59;;;22.71;57.77
84443;BME280;74681;0.000;0.000;2024-02-16T01:26:38;99606.09;;;22.70;57.81
84443;BME280;74681;0.000;0.000;2024-02-16T01:29:03;99603.34;;;22.70;57.56
84443;BME280;74681;0.000;0.000;2024-02-16T01:31:29;99604.16;;;22.70;57.76
84443;BME280;74681;0.000;0.000;2024-02-16T01:33:54;99598.97;;;22.69;57.55
84443;BME280;74681;0.000;0.000;2024-02-16T01:36:19;99600.06;;;22.68;57.53
84443;BME280;74681;0.000;0.000;2024-02-16T01:38:44;99605.53;;;22.68;57.53
84443;BME280;74681;0.000;0.000;2024-02-16T01:41:10;99612.91;;;22.67;57.62
84443;BME280;74681;0.000;0.000;2024-02-16T01:43:36;99603.91;;;22.67;57.65
84443;BME280;74681;0.000;0.000;2024-02-16T01:46:01;99607.75;;;22.66;57.61
84443;BME280;74681;0.000;0.000;2024-02-16T01:48:27;99595.16;;;22.65;57.52
84443;BME280;74681;0.000;0.000;2024-02-16T01:50:52;99590.50;;;22.65;57.20
84443;BME280;74681;0.000;0.000;2024-02-16T01:53:18;99599.00;;;22.64;57.13
84443;BME280;74681;0.000;0.000;2024-02-16T01:55:45;99606.34;;;22.63;57.68
84443;BME280;74681;0.000;0.000;2024-02-16T01:58:11;99601.97;;;22.62;57.54
84443;BME280;74681;0.000;0.000;2024-02-16T02:00:36;99596.50;;;22.62;57.57
84443;BME280;74681;0.000;0.000;2024-02-16T02:03:03;99603.09;;;22.61;57.37
84443;BME280;74681;0.000;0.000;2024-02-16T02:05:28;99590.50;;;22.60;57.60
84443;BME280;74681;0.000;0.000;2024-02-16T02:07:53;99590.50;;;22.60;57.64
84443;BME280;74681;0.000;0.000;2024-02-16T02:10:19;99596.78;;;22.60;57.50
84443;BME280;74681;0.000;0.000;2024-02-16T02:12:44;99595.13;;;22.59;57.36
84443;BME280;74681;0.000;0.000;2024-02-16T02:15:09;99591.59;;;22.59;57.12
84443;BME280;74681;0.000;0.000;2024-02-16T02:17:35;99595.44;;;22.58;57.53
84443;BME280;74681;0.000;0.000;2024-02-16T02:20:02;99589.13;;;22.57;57.17
84443;BME280;74681;0.000;0.000;2024-02-16T02:22:29;99583.66;;;22.57;57.29
84443;BME280;74681;0.000;0.000;2024-02-16T02:24:54;99574.63;;;22.57;57.34
84443;BME280;74681;0.000;0.000;2024-02-16T02:27:22;99581.19;;;22.56;57.16
84443;BME280;74681;0.000;0.000;2024-02-16T02:29:47;99574.09;;;22.55;57.31
84443;BME280;74681;0.000;0.000;2024-02-16T02:32:13;99574.09;;;22.55;57.44
84443;BME280;74681;0.000;0.000;2024-02-16T02:34:38;99582.31;;;22.55;57.39
84443;BME280;74681;0.000;0.000;2024-02-16T02:37:04;99576.00;;;22.54;57.21
84443;BME280;74681;0.000;0.000;2024-02-16T02:39:30;99576.28;;;22.53;57.42
84443;BME280;74681;0.000;0.000;2024-02-16T02:41:55;99581.75;;;22.53;57.36
84443;BME280;74681;0.000;0.000;2024-02-16T02:44:23;99584.50;;;22.53;57.28
84443;BME280;74681;0.000;0.000;2024-02-16T02:46:49;99582.03;;;22.51;57.46
84443;BME280;74681;0.000;0.000;2024-02-16T02:49:14;99581.22;;;22.51;57.09
84443;BME280;74681;0.000;0.000;2024-02-16T02:51:39;99585.59;;;22.52;57.31
84443;BME280;74681;0.000;0.000;2024-02-16T02:54:05;99571.38;;;22.50;57.18
84443;BME280;74681;0.000;0.000;2024-02-16T02:56:30;99582.34;;;22.50;57.13
84443;BME280;74681;0.000;0.000;2024-02-16T02:58:55;99577.97;;;22.49;57.33
84443;BME280;74681;0.000;0.000;2024-02-16T03:01:20;99577.97;;;22.49;57.15
84443;BME280;74681;0.000;0.000;2024-02-16T03:03:47;99577.13;;;22.48;57.24
84443;BME280;74681;0.000;0.000;2024-02-16T03:06:12;99579.88;;;22.48;57.35
84443;BME280;74681;0.000;0.000;2024-02-16T03:08:38;99577.41;;;22.47;57.08
84443;BME280;74681;0.000;0.000;2024-02-16T03:11:04;99571.13;;;22.46;57.05
84443;BME280;74681;0.000;0.000;2024-02-16T03:13:31;99578.50;;;22.46;57.13
84443;BME280;74681;0.000;0.000;2024-02-16T03:15:56;99575.78;;;22.46;57.10
84443;BME280;74681;0.000;0.000;2024-02-16T03:18:22;99588.63;;;22.45;57.02
84443;BME280;74681;0.000;0.000;2024-02-16T03:20:47;99587.00;;;22.44;57.28
84443;BME280;74681;0.000;0.000;2024-02-16T03:23:15;99588.94;;;22.44;57.18
84443;BME280;74681;0.000;0.000;2024-02-16T03:25:40;99580.72;;;22.44;57.20
84443;BME280;74681;0.000;0.000;2024-02-16T03:28:08;99588.09;;;22.43;57.06
84443;BME280;74681;0.000;0.000;2024-02-16T03:30:34;99590.31;;;22.41;57.15
84443;BME280;74681;0.000;0.000;2024-02-16T03:32:59;99594.66;;;22.42;57.08
84443;BME280;74681;0.000;0.000;2024-02-16T03:35:24;99586.75;;;22.41;57.00
84443;BME280;74681;0.000;0.000;2024-02-16T03:37:50;99590.56;;;22.40;56.93
84443;BME280;74681;0.000;0.000;2024-02-16T03:40:16;99585.09;;;22.40;57.15
84443;BME280;74681;0.000;0.000;2024-02-16T03:42:42;99595.22;;;22.39;56.93
84443;BME280;74681;0.000;0.000;2024-02-16T03:45:07;99590.88;;;22.38;57.07
84443;BME280;74681;0.000;0.000;2024-02-16T03:47:33;99595.50;;;22.38;56.88
84443;BME280;74681;0.000;0.000;2024-02-16T03:49:58;99592.78;;;22.38;57.06
84443;BME280;74681;0.000;0.000;2024-02-16T03:52:24;99591.13;;;22.37;57.09
84443;BME280;74681;0.000;0.000;2024-02-16T03:54:49;99593.88;;;22.37;56.96
84443;BME280;74681;0.000;0.000;2024-02-16T03:57:15;99586.78;;;22.36;56.99
84443;BME280;74681;0.000;0.000;2024-02-16T03:59:44;99597.72;;;22.36;57.08
84443;BME280;74681;0.000;0.000;2024-02-16T04:02:10;99588.69;;;22.35;56.76
84443;BME280;74681;0.000;0.000;2024-02-16T04:04:35;99589.78;;;22.34;56.82
84443;BME280;74681;0.000;0.000;2024-02-16T04:07:01;99601.84;;;22.33;56.84
84443;BME280;74681;0.000;0.000;2024-02-16T04:09:26;99602.63;;;22.34;56.91
84443;BME280;74681;0.000;0.000;2024-02-16T04:11:51;99601.84;;;22.33;56.88
84443;BME280;74681;0.000;0.000;2024-02-16T04:14:17;99600.19;;;22.32;56.99
84443;BME280;74681;0.000;0.000;2024-02-16T04:16:43;99598.53;;;22.31;56.76
84443;BME280;74681;0.000;0.000;2024-02-16T04:19:09;99596.63;;;22.32;56.79
84443;BME280;74681;0.000;0.000;2024-02-16T04:21:34;99599.34;;;22.32;56.96
84443;BME280;74681;0.000;0.000;2024-02-16T04:23:59;99597.72;;;22.31;57.02
84443;BME280;74681;0.000;0.000;2024-02-16T04:26:24;99605.91;;;22.31;56.72
84443;BME280;74681;0.000;0.000;2024-02-16T04:28:50;99595.25;;;22.29;56.80
84443;BME280;74681;0.000;0.000;2024-02-16T04:31:15;99600.75;;;22.29;56.71
84443;BME280;74681;0.000;0.000;2024-02-16T04:33:40;99599.09;;;22.28;56.89
84443;BME280;74681;0.000;0.000;2024-02-16T04:36:06;99604.56;;;22.28;56.71
84443;BME280;74681;0.000;0.000;2024-02-16T04:38:32;99606.50;;;22.28;56.90
84443;BME280;74681;0.000;0.000;2024-02-16T04:40:58;99603.75;;;22.28;56.94
84443;BME280;74681;0.000;0.000;2024-02-16T04:43:23;99605.69;;;22.27;56.68
84443;BME280;74681;0.000;0.000;2024-02-16T04:45:49;99600.22;;;22.27;56.75
84443;BME280;74681;0.000;0.000;2024-02-16T04:48:14;99602.38;;;22.25;56.81
84443;BME280;74681;0.000;0.000;2024-02-16T04:50:39;99599.63;;;22.25;56.87
84443;BME280;74681;0.000;0.000;2024-02-16T04:53:05;99610.59;;;22.25;56.58
84443;BME280;74681;0.000;0.000;2024-02-16T04:55:30;99615.25;;;22.25;56.71
84443;BME280;74681;0.000;0.000;2024-02-16T04:57:56;99606.22;;;22.24;56.78
84443;BME280;74681;0.000;0.000;2024-02-16T05:00:21;99605.41;;;22.24;56.76
84443;BME280;74681;0.000;0.000;2024-02-16T05:02:47;99609.22;;;22.23;56.75
84443;BME280;74681;0.000;0.000;2024-02-16T05:05:12;99601.03;;;22.23;56.65
84443;BME280;74681;0.000;0.000;2024-02-16T05:07:37;99603.75;;;22.23;56.66
84443;BME280;74681;0.000;0.000;2024-02-16T05:10:03;99613.06;;;22.22;56.55
84443;BME280;74681;0.000;0.000;2024-02-16T05:12:28;99615.00;;;22.21;56.73
84443;BME280;74681;0.000;0.000;2024-02-16T05:14:54;99611.44;;;22.21;56.66
84443;BME280;74681;0.000;0.000;2024-02-16T05:17:20;99616.06;;;22.20;56.58
84443;BME280;74681;0.000;0.000;2024-02-16T05:19:47;99616.38;;;22.19;56.77
84443;BME280;74681;0.000;0.000;2024-02-16T05:22:12;99609.78;;;22.20;56.66
84443;BME280;74681;0.000;0.000;2024-02-16T05:24:38;99613.63;;;22.19;56.58
84443;BME280;74681;0.000;0.000;2024-02-16T05:27:03;99606.50;;;22.18;56.54
84443;BME280;74681;0.000;0.000;2024-02-16T05:29:29;99611.97;;;22.18;56.43
84443;BME280;74681;0.000;0.000;2024-02-16T05:31:54;99608.41;;;22.17;56.71
84443;BME280;74681;0.000;0.000;2024-02-16T05:34:19;99617.75;;;22.16;56.41
84443;BME280;74681;0.000;0.000;2024-02-16T05:36:45;99608.72;;;22.16;56.54
84443;BME280;74681;0.000;0.000;2024-02-16T05:39:10;99607.88;;;22.15;56.41
84443;BME280;74681;0.000;0.000;2024-02-16T05:41:54;99608.72;;;22.16;56.47
84443;BME280;74681;0.000;0.000;2024-02-16T05:44:19;99610.91;;;22.14;56.67
84443;BME280;74681;0.000;0.000;2024-02-16T05:46:45;99613.66;;;22.14;56.54
84443;BME280;74681;0.000;0.000;2024-02-16T05:49:11;99618.28;;;22.13;56.76
84443;BME280;74681;0.000;0.000;2024-02-16T05:51:37;99621.03;;;22.13;56.61
84443;BME280;74681;0.000;0.000;2024-02-16T05:54:04;99625.69;;;22.13;56.47
84443;BME280;74681;0.000;0.000;2024-02-16T05:56:29;99618.56;;;22.12;56.49
84443;BME280;74681;0.000;0.000;2024-02-16T05:58:58;99625.94;;;22.11;56.65
84443;BME280;74681;0.000;0.000;2024-02-16T06:01:24;99633.34;;;22.11;56.55
84443;BME280;74681;0.000;0.000;2024-02-16T06:03:49;99636.88;;;22.11;56.32
84443;BME280;74681;0.000;0.000;2024-02-16T06:06:14;99635.25;;;22.10;56.52
84443;BME280;74681;0.000;0.000;2024-02-16T06:08:40;99640.44;;;22.12;56.72
84443;BME280;74681;0.000;0.000;2024-02-16T06:11:07;99640.19;;;22.13;56.69
84443;BME280;74681;0.000;0.000;2024-02-16T06:13:32;99644.53;;;22.14;56.92
84443;BME280;74681;0.000;0.000;2024-02-16T06:15:58;99650.81;;;22.15;56.82
84443;BME280;74681;0.000;0.000;2024-02-16T06:18:23;99650.56;;;22.16;57.30
84443;BME280;74681;0.000;0.000;2024-02-16T06:20:48;99649.44;;;22.17;57.30
84443;BME280;74681;0.000;0.000;2024-02-16T06:23:13;99650.00;;;22.19;57.61
84443;BME280;74681;0.000;0.000;2024-02-16T06:25:42;99651.94;;;22.19;57.41
84443;BME280;74681;0.000;0.000;2024-02-16T06:28:08;99653.53;;;22.20;57.63
84443;BME280;74681;0.000;0.000;2024-02-16T06:30:33;99650.81;;;22.20;57.45
84443;BME280;74681;0.000;0.000;2024-02-16T06:32:58;99661.50;;;22.21;57.81
84443;BME280;74681;0.000;0.000;2024-02-16T06:35:24;99660.38;;;22.22;58.15
84443;BME280;74681;0.000;0.000;2024-02-16T06:37:49;99666.69;;;22.23;58.33
84443;BME280;74681;0.000;0.000;2024-02-16T06:40:14;99666.69;;;22.23;57.99
84443;BME280;74681;0.000;0.000;2024-02-16T06:42:40;99665.84;;;22.22;58.05
84443;BME280;74681;0.000;0.000;2024-02-16T06:45:05;99665.06;;;22.22;58.07
84443;BME280;74681;0.000;0.000;2024-02-16T06:47:31;99667.50;;;22.23;58.49
84443;BME280;74681;0.000;0.000;2024-02-16T06:49:57;99669.16;;;22.24;58.51
84443;BME280;74681;0.000;0.000;2024-02-16T06:52:22;99670.78;;;22.25;58.71
84443;BME280;74681;0.000;0.000;2024-02-16T06:54:47;99666.13;;;22.26;58.81
84443;BME280;74681;0.000;0.000;2024-02-16T06:57:15;99682.28;;;22.27;59.22
84443;BME280;74681;0.000;0.000;2024-02-16T06:59:40;99679.25;;;22.29;59.07
84443;BME280;74681;0.000;0.000;2024-02-16T07:02:05;99681.97;;;22.29;59.23
84443;BME280;74681;0.000;0.000;2024-02-16T07:04:32;99689.38;;;22.28;59.23
84443;BME280;74681;0.000;0.000;2024-02-16T07:06:58;99685.56;;;22.29;59.30
84443;BME280;74681;0.000;0.000;2024-02-16T07:09:23;99680.91;;;22.30;59.27
84443;BME280;74681;0.000;0.000;2024-02-16T07:11:48;99687.19;;;22.30;59.37
84443;BME280;74681;0.000;0.000;2024-02-16T07:14:15;99686.38;;;22.30;59.62
84443;BME280;74681;0.000;0.000;2024-02-16T07:16:40;99689.38;;;22.28;58.93
84443;BME280;74681;0.000;0.000;2024-02-16T07:19:06;99680.38;;;22.28;58.47
84443;BME280;74681;0.000;0.000;2024-02-16T07:21:31;99695.38;;;22.25;58.32
84443;BME280;74681;0.000;0.000;2024-02-16T07:23:57;99697.34;;;22.25;58.20
84443;BME280;74681;0.000;0.000;2024-02-16T07:26:22;99696.75;;;22.23;58.16
84443;BME280;74681;0.000;0.000;2024-02-16T07:28:48;99699.50;;;22.23;57.96
84443;BME280;74681;0.000;0.000;2024-02-16T07:31:13;99691.59;;;22.21;57.67
84443;BME280;74681;0.000;0.000;2024-02-16T07:33:39;99698.97;;;22.21;57.67
84443;BME280;74681;0.000;0.000;2024-02-16T07:36:05;99696.53;;;22.19;57.29
84443;BME280;74681;0.000;0.000;2024-02-16T07:38:30;99702.00;;;22.19;57.30
84443;BME280;74681;0.000;0.000;2024-02-16T07:40:55;99703.91;;;22.19;57.36
84443;BME280;74681;0.000;0.000;2024-02-16T07:43:21;99692.97;;;22.19;57.29
84443;BME280;74681;0.000;0.000;2024-02-16T07:45:49;99695.69;;;22.19;57.19
84443;BME280;74681;0.000;0.000;2024-02-16T07:48:15;99704.97;;;22.18;57.12
84443;BME280;74681;0.000;0.000;2024-02-16T07:50:40;99705.81;;;22.18;57.03
84443;BME280;74681;0.000;0.000;2024-02-16T07:53:06;99709.38;;;22.19;56.88
84443;BME280;74681;0.000;0.000;2024-02-16T07:55:31;99690.22;;;22.19;56.90
84443;BME280;74681;0.000;0.000;2024-02-16T07:57:57;99704.97;;;22.18;56.76
84443;BME280;74681;0.000;0.000;2024-02-16T08:00:22;99698.69;;;22.17;56.82
84443;BME280;74681;0.000;0.000;2024-02-16T08:02:48;99694.03;;;22.18;56.74
84443;BME280;74681;0.000;0.000;2024-02-16T08:05:13;99693.22;;;22.17;56.51
84443;BME280;74681;0.000;0.000;2024-02-16T08:07:39;99693.22;;;22.17;56.70
84443;BME280;74681;0.000;0.000;2024-02-16T08:10:08;99691.59;;;22.16;56.37
84443;BME280;74681;0.000;0.000;2024-02-16T08:12:33;99690.47;;;22.17;56.37
84443;BME280;74681;0.000;0.000;2024-02-16T08:15:01;99688.84;;;22.16;56.44
84443;BME280;74681;0.000;0.000;2024-02-16T08:17:26;99689.66;;;22.17;56.42
84443;BME280;74681;0.000;0.000;2024-02-16T08:19:52;99697.06;;;22.16;56.25
84443;BME280;74681;0.000;0.000;2024-02-16T08:22:19;99692.38;;;22.17;56.14
84443;BME280;74681;0.000;0.000;2024-02-16T08:24:44;99690.78;;;22.16;55.96
84443;BME280;74681;0.000;0.000;2024-02-16T08:27:11;99684.75;;;22.14;55.83
84443;BME280;74681;0.000;0.000;2024-02-16T08:29:37;99692.97;;;22.14;56.08
84443;BME280;74681;0.000;0.000;2024-02-16T08:32:03;99698.44;;;22.14;55.93
84443;BME280;74681;0.000;0.000;2024-02-16T08:34:31;99697.31;;;22.15;55.70
84443;BME280;74681;0.000;0.000;2024-02-16T08:36:56;99695.41;;;22.15;55.69
84443;BME280;74681;0.000;0.000;2024-02-16T08:39:22;99694.59;;;22.15;55.60
84443;BME280;74681;0.000;0.000;2024-02-16T08:41:50;99700.06;;;22.15;55.39
84443;BME280;74681;0.000;0.000;2024-02-16T08:44:15;99704.69;;;22.14;55.38
84443;BME280;74681;0.000;0.000;2024-02-16T08:46:41;99710.47;;;22.13;55.08
84443;BME280;74681;0.000;0.000;2024-02-16T08:49:06;99706.06;;;22.12;55.11
84443;BME280;74681;0.000;0.000;2024-02-16T08:51:32;99717.84;;;22.12;54.69
84443;BME280;74681;0.000;0.000;2024-02-16T08:53:58;99709.63;;;22.12;54.65
84443;BME280;74681;0.000;0.000;2024-02-16T08:56:23;99712.38;;;22.12;54.71
84443;BME280;74681;0.000;0.000;2024-02-16T08:58:49;99717.84;;;22.12;54.78
84443;BME280;74681;0.000;0.000;2024-02-16T09:01:14;99718.66;;;22.13;54.65
84443;BME280;74681;0.000;0.000;2024-02-16T09:03:41;99714.03;;;22.13;54.63
84443;BME280;74681;0.000;0.000;2024-02-16T09:06:07;99712.13;;;22.14;54.47
84443;BME280;74681;0.000;0.000;2024-02-16T09:08:32;99715.66;;;22.14;54.64
84443;BME280;74681;0.000;0.000;2024-02-16T09:11:03;99716.47;;;22.15;54.72
84443;BME280;74681;0.000;0.000;2024-02-16T09:13:32;99709.91;;;22.16;54.73
84443;BME280;74681;0.000;0.000;2024-02-16T09:15:58;99714.28;;;22.17;54.66
84443;BME280;74681;0.000;0.000;2024-02-16T09:18:23;99710.75;;;22.16;54.76
84443;BME280;74681;0.000;0.000;2024-02-16T09:20:48;99715.94;;;22.18;54.58
84443;BME280;74681;0.000;0.000;2024-02-16T09:23:13;99713.19;;;22.18;54.71
84443;BME280;74681;0.000;0.000;2024-02-16T09:25:39;99723.03;;;22.19;54.67
84443;BME280;74681;0.000;0.000;2024-02-16T09:28:06;99716.47;;;22.20;54.68
84443;BME280;74681;0.000;0.000;2024-02-16T09:30:32;99724.66;;;22.20;54.78
84443;BME280;74681;0.000;0.000;2024-02-16T09:32:58;99725.50;;;22.20;54.90
84443;BME280;74681;0.000;0.000;2024-02-16T09:35:25;99730.72;;;22.22;54.67
84443;BME280;74681;0.000;0.000;2024-02-16T09:37:50;99719.75;;;22.22;54.93
84443;BME280;74681;0.000;0.000;2024-02-16T09:40:16;99721.38;;;22.23;54.91
84443;BME280;74681;0.000;0.000;2024-02-16T09:42:47;99730.41;;;22.23;54.83
84443;BME280;74681;0.000;0.000;2024-02-16T09:45:12;99721.94;;;22.25;55.10
84443;BME280;74681;0.000;0.000;2024-02-16T09:47:41;99729.88;;;22.26;55.32
84443;BME280;74681;0.000;0.000;2024-02-16T09:50:07;99723.03;;;22.29;55.39
84443;BME280;74681;0.000;0.000;2024-02-16T09:52:35;99724.69;;;22.30;55.40
84443;BME280;74681;0.000;0.000;2024-02-16T09:55:00;99722.47;;;22.32;55.55
84443;BME280;74681;0.000;0.000;2024-02-16T09:57:26;99726.03;;;22.32;55.65
84443;BME280;74681;0.000;0.000;2024-02-16T09:59:51;99712.88;;;22.34;55.73
84443;BME280;74681;0.000;0.000;2024-02-16T10:02:17;99721.09;;;22.34;55.66
84443;BME280;74681;0.000;0.000;2024-02-16T10:04:42;99722.75;;;22.35;55.80
84443;BME280;74681;0.000;0.000;2024-02-16T10:07:07;99728.22;;;22.35;55.79
84443;BME280;74681;0.000;0.000;2024-02-16T10:09:33;99730.66;;;22.37;56.02
84443;BME280;74681;0.000;0.000;2024-02-16T10:11:58;99725.19;;;22.37;56.05
84443;BME280;74681;0.000;0.000;2024-02-16T10:14:24;99731.50;;;22.37;56.05
84443;BME280;74681;0.000;0.000;2024-02-16T10:17:03;99722.19;;;22.38;55.98
84443;BME280;74681;0.000;0.000;2024-02-16T10:19:29;99720.28;;;22.39;56.17
84443;BME280;74681;0.000;0.000;2024-02-16T10:22:14;99718.34;;;22.39;56.13
84443;BME280;74681;0.000;0.000;2024-02-16T10:24:42;99717.25;;;22.40;55.97
84443;BME280;74681;0.000;0.000;2024-02-16T10:27:14;99708.75;;;22.42;56.22
84443;BME280;74681;0.000;0.000;2024-02-16T10:29:43;99715.06;;;22.42;55.95
84443;BME280;74681;0.000;0.000;2024-02-16T10:32:10;99705.78;;;22.43;56.19
84443;BME280;74681;0.000;0.000;2024-02-16T10:34:37;99704.69;;;22.44;56.21
84443;BME280;74681;0.000;0.000;2024-02-16T10:37:04;99704.69;;;22.44;56.25
84443;BME280;74681;0.000;0.000;2024-02-16T10:39:30;99705.22;;;22.46;56.28
84443;BME280;74681;0.000;0.000;2024-02-16T10:41:55;99698.09;;;22.45;56.33
84443;BME280;74681;0.000;0.000;2024-02-16T10:44:22;99688.81;;;22.46;56.18
84443;BME280;74681;0.000;0.000;2024-02-16T10:46:47;99684.16;;;22.47;56.25
84443;BME280;74681;0.000;0.000;2024-02-16T10:49:13;99688.50;;;22.48;56.20
84443;BME280;74681;0.000;0.000;2024-02-16T10:51:40;99681.94;;;22.49;56.45
84443;BME280;74681;0.000;0.000;2024-02-16T10:54:08;99679.22;;;22.49;56.21
84443;BME280;74681;0.000;0.000;2024-02-16T10:56:35;99680.03;;;22.49;56.38
84443;BME280;74681;0.000;0.000;2024-02-16T10:59:02;99685.22;;;22.51;56.13
84443;BME280;74681;0.000;0.000;2024-02-16T11:01:27;99674.28;;;22.51;56.39
84443;BME280;74681;0.000;0.000;2024-02-16T11:04:00;99676.75;;;22.52;55.98
84443;BME280;74681;0.000;0.000;2024-02-16T11:06:26;99671.28;;;22.52;56.19
84443;BME280;74681;0.000;0.000;2024-02-16T11:08:51;99660.03;;;22.54;56.21
84443;BME280;74681;0.000;0.000;2024-02-16T11:11:23;99658.38;;;22.53;56.10
84443;BME280;74681;0.000;0.000;2024-02-16T11:13:49;99663.59;;;22.54;56.16
84443;BME280;74681;0.000;0.000;2024-02-16T11:16:14;99655.66;;;22.53;56.10
84443;BME280;74681;0.000;0.000;2024-02-16T11:18:42;99655.38;;;22.54;55.71
84443;BME280;74681;0.000;0.000;2024-02-16T11:21:15;99651.81;;;22.54;55.65
84443;BME280;74681;0.000;0.000;2024-02-16T11:23:40;99651.00;;;22.53;55.57
84443;BME280;74681;0.000;0.000;2024-02-16T11:26:09;99644.69;;;22.53;55.25
84443;BME280;74681;0.000;0.000;2024-02-16T11:28:42;99656.47;;;22.53;55.18
84443;BME280;74681;0.000;0.000;2024-02-16T11:31:08;99663.59;;;22.54;54.97
84443;BME280;74681;0.000;0.000;2024-02-16T11:33:33;99650.72;;;22.55;54.97
84443;BME280;74681;0.000;0.000;2024-02-16T11:38:24;99637.88;;;22.50;54.35
84443;BME280;74681;0.000;0.000;2024-02-16T11:40:59;99640.59;;;22.50;53.86
84443;BME280;74681;0.000;0.000;2024-02-16T11:43:25;99647.72;;;22.51;54.09
84443;BME280;74681;0.000;0.000;2024-02-16T11:45:51;99640.34;;;22.52;54.06
84443;BME280;74681;0.000;0.000;2024-02-16T11:48:20;99651.00;;;22.53;54.28
84443;BME280;74681;0.000;0.000;2024-02-16T11:50:46;99645.81;;;22.52;53.44
84443;BME280;74681;0.000;0.000;2024-02-16T11:53:18;99639.81;;;22.50;53.20
84443;BME280;74681;0.000;0.000;2024-02-16T11:55:48;99639.25;;;22.48;52.82
84443;BME280;74681;0.000;0.000;2024-02-16T11:58:15;99637.63;;;22.47;52.29
84443;BME280;74681;0.000;0.000;2024-02-16T12:00:40;99638.72;;;22.46;52.24
84443;BME280;74681;0.000;0.000;2024-02-16T12:03:06;99626.94;;;22.45;51.62
84443;BME280;74681;0.000;0.000;2024-02-16T12:05:33;99631.88;;;22.43;51.49
84443;BME280;74681;0.000;0.000;2024-02-16T12:07:58;99623.16;;;22.41;51.03
84443;BME280;74681;0.000;0.000;2024-02-16T12:10:24;99619.03;;;22.44;51.46
84443;BME280;74681;0.000;0.000;2024-02-16T12:12:50;99616.28;;;22.44;51.26
84443;BME280;74681;0.000;0.000;2024-02-16T12:15:16;99616.28;;;22.44;50.35
84443;BME280;74681;0.000;0.000;2024-02-16T12:17:45;99604.78;;;22.42;50.56
84443;BME280;74681;0.000;0.000;2024-02-16T12:20:12;99613.81;;;22.42;50.37
84443;BME280;74681;0.000;0.000;2024-02-16T12:22:39;99617.38;;;22.43;50.22
84443;BME280;74681;0.000;0.000;2024-02-16T12:25:08;99616.56;;;22.42;50.00
84443;BME280;74681;0.000;0.000;2024-02-16T12:27:46;99609.47;;;22.41;49.07
84443;BME280;74681;0.000;0.000;2024-02-16T12:30:11;99611.63;;;22.39;49.27
84443;BME280;74681;0.000;0.000;2024-02-16T12:32:38;99606.72;;;22.41;49.34
84443;BME280;74681;0.000;0.000;2024-02-16T12:35:04;99602.88;;;22.42;49.34
84443;BME280;74681;0.000;0.000;2024-02-16T12:37:30;99605.63;;;22.37;48.08
84443;BME280;74681;0.000;0.000;2024-02-16T12:39:55;99611.41;;;22.36;48.07
84443;BME280;74681;0.000;0.000;2024-02-16T12:42:21;99593.03;;;22.36;48.13
84443;BME280;74681;0.000;0.000;2024-02-16T12:44:47;99590.59;;;22.35;47.47
84443;BME280;74681;0.000;0.000;2024-02-16T12:47:12;99593.03;;;22.36;47.55
84443;BME280;74681;0.000;0.000;2024-02-16T12:49:38;99598.25;;;22.38;47.42
84443;BME280;74681;0.000;0.000;2024-02-16T12:52:03;99594.66;;;22.42;47.83
84443;BME280;74681;0.000;0.000;2024-02-16T12:54:29;99592.50;;;22.44;47.93
84443;BME280;74681;0.000;0.000;2024-02-16T12:56:55;99589.16;;;22.47;48.12
84443;BME280;74681;0.000;0.000;2024-02-16T12:59:20;99585.34;;;22.48;48.26
84443;BME280;74681;0.000;0.000;2024-02-16T13:01:45;99585.59;;;22.52;48.46
84443;BME280;74681;0.000;0.000;2024-02-16T13:04:12;99582.56;;;22.53;48.42
84443;BME280;74681;0.000;0.000;2024-02-16T13:06:45;99576.84;;;22.55;48.52